sensor_id;sensor_type;location;lat;lon;timestamp;P1;durP1;ratioP1;P2;durP2;ratioP2
74196;SDS011;62555;52.678;4.900;2023-09-30T00:00:33;1.63;;;1.13;;
74196;SDS011;62555;52.678;4.900;2023-09-30T00:02:58;1.87;;;1.07;;
74196;SDS011;62555;52.678;4.900;2023-09-30T00:05:25;1.92;;;1.23;;
74196;SDS011;62555;52.678;4.900;2023-09-30T00:07:51;2.07;;;1.20;;
74196;SDS011;62555;52.678;4.900;2023-09-30T00:10:16;2.67;;;1.37;;
74196;SDS011;62555;52.678;4.900;2023-09-30T00:12:41;1.83;;;1.10;;
74196;SDS011;62555;52.678;4.900;2023-09-30T00:15:06;1.83;;;1.43;;
74196;SDS011;62555;52.678;4.900;2023-09-30T00:17:31;1.88;;;1.23;;
74196;SDS011;62555;52.678;4.900;2023-09-30T00:19:57;1.45;;;0.80;;
74196;SDS011;62555;52.678;4.900;2023-09-30T00:22:22;1.67;;;0.90;;
74196;SDS011;62555;52.678;4.900;2023-09-30T00:24:47;2.70;;;1.07;;
74196;SDS011;62555;52.678;4.900;2023-09-30T00:27:13;2.85;;;1.20;;
74196;SDS011;62555;52.678;4.900;2023-09-30T00:29:38;2.70;;;0.90;;
74196;SDS011;62555;52.678;4.900;2023-09-30T00:32:03;3.33;;;1.60;;
74196;SDS011;62555;52.678;4.900;2023-09-30T00:34:31;1.90;;;1.10;;
74196;SDS011;62555;52.678;4.900;2023-09-30T00:36:56;3.25;;;1.13;;
74196;SDS011;62555;52.678;4.900;2023-09-30T00:39:22;2.70;;;1.50;;
74196;SDS011;62555;52.678;4.900;2023-09-30T00:41:47;1.92;;;1.00;;
74196;SDS011;62555;52.678;4.900;2023-09-30T00:44:13;1.73;;;1.30;;
74196;SDS011;62555;52.678;4.900;2023-09-30T00:46:39;2.50;;;1.60;;
74196;SDS011;62555;52.678;4.900;2023-09-30T00:49:05;2.40;;;1.27;;
74196;SDS011;62555;52.678;4.900;2023-09-30T00:51:30;2.13;;;1.20;;
74196;SDS011;62555;52.678;4.900;2023-09-30T00:53:57;1.63;;;1.27;;
74196;SDS011;62555;52.678;4.900;2023-09-30T00:56:24;1.60;;;0.85;;
74196;SDS011;62555;52.678;4.900;2023-09-30T01:01:16;1.15;;;1.00;;
74196;SDS011;62555;52.678;4.900;2023-09-30T01:03:41;2.45;;;1.05;;
74196;SDS011;62555;52.678;4.900;2023-09-30T01:06:06;1.17;;;0.93;;
74196;SDS011;62555;52.678;4.900;2023-09-30T01:08:32;3.72;;;1.30;;
74196;SDS011;62555;52.678;4.900;2023-09-30T01:10:59;1.67;;;1.08;;
74196;SDS011;62555;52.678;4.900;2023-09-30T01:13:31;1.83;;;1.13;;
74196;SDS011;62555;52.678;4.900;2023-09-30T01:15:56;1.83;;;0.95;;
74196;SDS011;62555;52.678;4.900;2023-09-30T01:18:21;2.17;;;1.20;;
74196;SDS011;62555;52.678;4.900;2023-09-30T01:20:46;2.65;;;0.93;;
74196;SDS011;62555;52.678;4.900;2023-09-30T01:23:11;1.37;;;0.80;;
74196;SDS011;62555;52.678;4.900;2023-09-30T01:25:37;2.70;;;1.50;;
74196;SDS011;62555;52.678;4.900;2023-09-30T01:28:06;1.70;;;1.10;;
74196;SDS011;62555;52.678;4.900;2023-09-30T01:30:32;2.30;;;1.30;;
74196;SDS011;62555;52.678;4.900;2023-09-30T01:32:58;2.67;;;1.10;;
74196;SDS011;62555;52.678;4.900;2023-09-30T01:35:23;2.07;;;1.00;;
74196;SDS011;62555;52.678;4.900;2023-09-30T01:37:48;1.73;;;1.10;;
74196;SDS011;62555;52.678;4.900;2023-09-30T01:40:13;2.47;;;1.30;;
74196;SDS011;62555;52.678;4.900;2023-09-30T01:42:39;2.28;;;1.48;;
74196;SDS011;62555;52.678;4.900;2023-09-30T01:45:05;1.90;;;1.17;;
74196;SDS011;62555;52.678;4.900;2023-09-30T01:47:30;1.20;;;0.80;;
74196;SDS011;62555;52.678;4.900;2023-09-30T01:49:55;2.40;;;1.23;;
74196;SDS011;62555;52.678;4.900;2023-09-30T01:52:20;2.08;;;1.35;;
74196;SDS011;62555;52.678;4.900;2023-09-30T01:54:45;2.77;;;1.33;;
74196;SDS011;62555;52.678;4.900;2023-09-30T01:57:11;1.43;;;1.03;;
74196;SDS011;62555;52.678;4.900;2023-09-30T01:59:36;1.97;;;0.90;;
74196;SDS011;62555;52.678;4.900;2023-09-30T02:02:01;3.00;;;1.07;;
74196;SDS011;62555;52.678;4.900;2023-09-30T02:04:27;2.15;;;1.65;;
74196;SDS011;62555;52.678;4.900;2023-09-30T02:06:52;1.73;;;1.30;;
74196;SDS011;62555;52.678;4.900;2023-09-30T02:09:18;1.73;;;1.00;;
74196;SDS011;62555;52.678;4.900;2023-09-30T02:11:43;1.42;;;0.70;;
74196;SDS011;62555;52.678;4.900;2023-09-30T02:14:09;1.52;;;0.90;;
74196;SDS011;62555;52.678;4.900;2023-09-30T02:16:36;2.33;;;1.30;;
74196;SDS011;62555;52.678;4.900;2023-09-30T02:19:02;1.88;;;0.90;;
74196;SDS011;62555;52.678;4.900;2023-09-30T02:21:27;2.20;;;0.90;;
74196;SDS011;62555;52.678;4.900;2023-09-30T02:23:53;1.52;;;1.13;;
74196;SDS011;62555;52.678;4.900;2023-09-30T02:26:20;1.52;;;1.33;;
74196;SDS011;62555;52.678;4.900;2023-09-30T02:28:45;1.98;;;1.10;;
74196;SDS011;62555;52.678;4.900;2023-09-30T02:31:10;1.23;;;0.88;;
74196;SDS011;62555;52.678;4.900;2023-09-30T02:33:35;1.83;;;1.10;;
74196;SDS011;62555;52.678;4.900;2023-09-30T02:36:02;2.05;;;1.33;;
74196;SDS011;62555;52.678;4.900;2023-09-30T02:38:30;1.83;;;0.90;;
74196;SDS011;62555;52.678;4.900;2023-09-30T02:40:56;2.55;;;1.38;;
74196;SDS011;62555;52.678;4.900;2023-09-30T02:43:21;2.17;;;0.93;;
74196;SDS011;62555;52.678;4.900;2023-09-30T02:45:47;1.27;;;0.77;;
74196;SDS011;62555;52.678;4.900;2023-09-30T02:48:12;1.27;;;1.00;;
74196;SDS011;62555;52.678;4.900;2023-09-30T02:50:38;2.45;;;1.13;;
74196;SDS011;62555;52.678;4.900;2023-09-30T02:53:05;2.15;;;1.15;;
74196;SDS011;62555;52.678;4.900;2023-09-30T02:55:30;2.27;;;1.20;;
74196;SDS011;62555;52.678;4.900;2023-09-30T02:57:55;1.40;;;1.02;;
74196;SDS011;62555;52.678;4.900;2023-09-30T03:00:21;1.80;;;1.10;;
74196;SDS011;62555;52.678;4.900;2023-09-30T03:02:50;3.05;;;1.38;;
74196;SDS011;62555;52.678;4.900;2023-09-30T03:05:15;1.52;;;1.02;;
74196;SDS011;62555;52.678;4.900;2023-09-30T03:07:41;3.60;;;1.52;;
74196;SDS011;62555;52.678;4.900;2023-09-30T03:10:06;1.13;;;0.90;;
74196;SDS011;62555;52.678;4.900;2023-09-30T03:12:33;2.30;;;1.25;;
74196;SDS011;62555;52.678;4.900;2023-09-30T03:14:58;1.73;;;1.17;;
74196;SDS011;62555;52.678;4.900;2023-09-30T03:17:24;1.37;;;1.03;;
74196;SDS011;62555;52.678;4.900;2023-09-30T03:19:50;2.50;;;1.10;;
74196;SDS011;62555;52.678;4.900;2023-09-30T03:22:15;2.10;;;0.90;;
74196;SDS011;62555;52.678;4.900;2023-09-30T03:24:41;3.00;;;0.97;;
74196;SDS011;62555;52.678;4.900;2023-09-30T03:27:06;1.70;;;0.97;;
74196;SDS011;62555;52.678;4.900;2023-09-30T03:29:32;1.67;;;1.10;;
74196;SDS011;62555;52.678;4.900;2023-09-30T03:31:57;2.73;;;1.20;;
74196;SDS011;62555;52.678;4.900;2023-09-30T03:34:22;1.48;;;0.90;;
74196;SDS011;62555;52.678;4.900;2023-09-30T03:36:47;2.47;;;1.00;;
74196;SDS011;62555;52.678;4.900;2023-09-30T03:39:13;1.87;;;1.10;;
74196;SDS011;62555;52.678;4.900;2023-09-30T03:41:40;2.13;;;1.17;;
74196;SDS011;62555;52.678;4.900;2023-09-30T03:44:05;2.10;;;1.20;;
74196;SDS011;62555;52.678;4.900;2023-09-30T03:46:31;1.50;;;0.80;;
74196;SDS011;62555;52.678;4.900;2023-09-30T03:48:56;1.88;;;1.33;;
74196;SDS011;62555;52.678;4.900;2023-09-30T03:51:21;2.38;;;0.95;;
74196;SDS011;62555;52.678;4.900;2023-09-30T03:53:50;2.53;;;1.48;;
74196;SDS011;62555;52.678;4.900;2023-09-30T03:56:15;1.70;;;1.08;;
74196;SDS011;62555;52.678;4.900;2023-09-30T03:58:41;2.55;;;1.27;;
74196;SDS011;62555;52.678;4.900;2023-09-30T04:01:06;2.42;;;1.10;;
74196;SDS011;62555;52.678;4.900;2023-09-30T04:03:32;3.22;;;1.58;;
74196;SDS011;62555;52.678;4.900;2023-09-30T04:05:58;2.15;;;1.30;;
74196;SDS011;62555;52.678;4.900;2023-09-30T04:08:23;1.60;;;1.20;;
74196;SDS011;62555;52.678;4.900;2023-09-30T04:10:49;1.92;;;1.38;;
74196;SDS011;62555;52.678;4.900;2023-09-30T04:13:14;2.33;;;1.30;;
74196;SDS011;62555;52.678;4.900;2023-09-30T04:15:39;1.38;;;0.95;;
74196;SDS011;62555;52.678;4.900;2023-09-30T04:18:04;1.47;;;1.20;;
74196;SDS011;62555;52.678;4.900;2023-09-30T04:20:33;2.95;;;1.23;;
74196;SDS011;62555;52.678;4.900;2023-09-30T04:22:58;2.30;;;1.30;;
74196;SDS011;62555;52.678;4.900;2023-09-30T04:25:23;2.60;;;1.20;;
74196;SDS011;62555;52.678;4.900;2023-09-30T04:27:52;3.10;;;1.27;;
74196;SDS011;62555;52.678;4.900;2023-09-30T04:30:17;2.85;;;1.33;;
74196;SDS011;62555;52.678;4.900;2023-09-30T04:32:43;1.98;;;1.13;;
74196;SDS011;62555;52.678;4.900;2023-09-30T04:35:08;2.17;;;1.00;;
74196;SDS011;62555;52.678;4.900;2023-09-30T04:37:34;1.93;;;1.20;;
74196;SDS011;62555;52.678;4.900;2023-09-30T04:40:00;2.35;;;1.40;;
74196;SDS011;62555;52.678;4.900;2023-09-30T04:42:26;2.60;;;1.20;;
74196;SDS011;62555;52.678;4.900;2023-09-30T04:44:52;2.00;;;1.37;;
74196;SDS011;62555;52.678;4.900;2023-09-30T04:47:17;1.67;;;1.17;;
74196;SDS011;62555;52.678;4.900;2023-09-30T04:49:43;2.65;;;1.25;;
74196;SDS011;62555;52.678;4.900;2023-09-30T04:52:09;2.13;;;1.15;;
74196;SDS011;62555;52.678;4.900;2023-09-30T04:54:34;2.10;;;1.27;;
74196;SDS011;62555;52.678;4.900;2023-09-30T04:57:00;1.92;;;1.50;;
74196;SDS011;62555;52.678;4.900;2023-09-30T04:59:25;2.20;;;1.40;;
74196;SDS011;62555;52.678;4.900;2023-09-30T05:01:50;2.87;;;1.40;;
74196;SDS011;62555;52.678;4.900;2023-09-30T05:04:15;2.20;;;1.60;;
74196;SDS011;62555;52.678;4.900;2023-09-30T05:06:41;2.93;;;1.83;;
74196;SDS011;62555;52.678;4.900;2023-09-30T05:09:06;2.15;;;1.50;;
74196;SDS011;62555;52.678;4.900;2023-09-30T05:11:32;3.13;;;1.35;;
74196;SDS011;62555;52.678;4.900;2023-09-30T05:13:57;3.22;;;1.80;;
74196;SDS011;62555;52.678;4.900;2023-09-30T05:16:22;3.20;;;1.40;;
74196;SDS011;62555;52.678;4.900;2023-09-30T05:18:47;2.27;;;1.30;;
74196;SDS011;62555;52.678;4.900;2023-09-30T05:21:13;2.60;;;1.15;;
74196;SDS011;62555;52.678;4.900;2023-09-30T05:23:38;3.08;;;1.60;;
74196;SDS011;62555;52.678;4.900;2023-09-30T05:26:03;2.30;;;1.50;;
74196;SDS011;62555;52.678;4.900;2023-09-30T05:28:29;2.07;;;1.27;;
74196;SDS011;62555;52.678;4.900;2023-09-30T05:30:54;2.03;;;1.20;;
74196;SDS011;62555;52.678;4.900;2023-09-30T05:33:19;2.13;;;1.50;;
74196;SDS011;62555;52.678;4.900;2023-09-30T05:35:44;2.00;;;1.45;;
74196;SDS011;62555;52.678;4.900;2023-09-30T05:38:10;3.37;;;1.80;;
74196;SDS011;62555;52.678;4.900;2023-09-30T05:40:35;2.33;;;1.53;;
74196;SDS011;62555;52.678;4.900;2023-09-30T05:43:00;2.83;;;1.30;;
74196;SDS011;62555;52.678;4.900;2023-09-30T05:45:32;2.13;;;1.60;;
74196;SDS011;62555;52.678;4.900;2023-09-30T05:48:03;2.35;;;1.60;;
74196;SDS011;62555;52.678;4.900;2023-09-30T05:50:31;2.88;;;1.65;;
74196;SDS011;62555;52.678;4.900;2023-09-30T05:52:56;3.28;;;1.52;;
74196;SDS011;62555;52.678;4.900;2023-09-30T05:55:22;3.20;;;1.70;;
74196;SDS011;62555;52.678;4.900;2023-09-30T05:57:50;2.60;;;1.38;;
74196;SDS011;62555;52.678;4.900;2023-09-30T06:00:15;1.60;;;1.20;;
74196;SDS011;62555;52.678;4.900;2023-09-30T06:03:01;2.30;;;1.50;;
74196;SDS011;62555;52.678;4.900;2023-09-30T06:05:27;2.95;;;1.50;;
74196;SDS011;62555;52.678;4.900;2023-09-30T06:07:55;2.85;;;1.65;;
74196;SDS011;62555;52.678;4.900;2023-09-30T06:10:20;1.95;;;1.27;;
74196;SDS011;62555;52.678;4.900;2023-09-30T06:12:50;1.98;;;1.70;;
74196;SDS011;62555;52.678;4.900;2023-09-30T06:15:19;2.90;;;1.52;;
74196;SDS011;62555;52.678;4.900;2023-09-30T06:17:47;2.40;;;1.33;;
74196;SDS011;62555;52.678;4.900;2023-09-30T06:20:12;2.28;;;1.55;;
74196;SDS011;62555;52.678;4.900;2023-09-30T06:22:43;2.70;;;1.65;;
74196;SDS011;62555;52.678;4.900;2023-09-30T06:25:10;1.95;;;1.73;;
74196;SDS011;62555;52.678;4.900;2023-09-30T06:27:35;3.00;;;1.57;;
74196;SDS011;62555;52.678;4.900;2023-09-30T06:30:00;2.20;;;1.43;;
74196;SDS011;62555;52.678;4.900;2023-09-30T06:32:25;2.33;;;1.37;;
74196;SDS011;62555;52.678;4.900;2023-09-30T06:34:51;3.80;;;1.73;;
74196;SDS011;62555;52.678;4.900;2023-09-30T06:37:17;1.58;;;1.35;;
74196;SDS011;62555;52.678;4.900;2023-09-30T06:39:43;2.92;;;1.80;;
74196;SDS011;62555;52.678;4.900;2023-09-30T06:42:08;2.37;;;1.40;;
74196;SDS011;62555;52.678;4.900;2023-09-30T06:44:33;2.93;;;1.57;;
74196;SDS011;62555;52.678;4.900;2023-09-30T06:46:59;1.88;;;1.60;;
74196;SDS011;62555;52.678;4.900;2023-09-30T06:49:24;2.58;;;1.42;;
74196;SDS011;62555;52.678;4.900;2023-09-30T06:51:49;2.35;;;1.60;;
74196;SDS011;62555;52.678;4.900;2023-09-30T06:54:14;2.13;;;1.33;;
74196;SDS011;62555;52.678;4.900;2023-09-30T06:56:40;3.90;;;1.92;;
74196;SDS011;62555;52.678;4.900;2023-09-30T06:59:06;3.55;;;1.67;;
74196;SDS011;62555;52.678;4.900;2023-09-30T07:01:31;2.65;;;1.60;;
74196;SDS011;62555;52.678;4.900;2023-09-30T07:03:57;2.25;;;1.70;;
74196;SDS011;62555;52.678;4.900;2023-09-30T07:06:25;3.33;;;1.70;;
74196;SDS011;62555;52.678;4.900;2023-09-30T07:08:51;3.03;;;1.80;;
74196;SDS011;62555;52.678;4.900;2023-09-30T07:11:16;3.00;;;1.73;;
74196;SDS011;62555;52.678;4.900;2023-09-30T07:13:41;3.13;;;1.97;;
74196;SDS011;62555;52.678;4.900;2023-09-30T07:16:07;3.00;;;1.93;;
74196;SDS011;62555;52.678;4.900;2023-09-30T07:18:32;2.63;;;1.77;;
74196;SDS011;62555;52.678;4.900;2023-09-30T07:20:57;2.10;;;1.50;;
74196;SDS011;62555;52.678;4.900;2023-09-30T07:23:22;3.08;;;1.83;;
74196;SDS011;62555;52.678;4.900;2023-09-30T07:25:47;3.87;;;2.00;;
74196;SDS011;62555;52.678;4.900;2023-09-30T07:28:12;2.43;;;1.80;;
74196;SDS011;62555;52.678;4.900;2023-09-30T07:30:38;2.75;;;1.42;;
74196;SDS011;62555;52.678;4.900;2023-09-30T07:33:03;2.33;;;1.70;;
74196;SDS011;62555;52.678;4.900;2023-09-30T07:35:29;2.80;;;1.83;;
74196;SDS011;62555;52.678;4.900;2023-09-30T07:37:54;2.28;;;1.80;;
74196;SDS011;62555;52.678;4.900;2023-09-30T07:40:19;2.83;;;2.10;;
74196;SDS011;62555;52.678;4.900;2023-09-30T07:42:46;2.60;;;1.60;;
74196;SDS011;62555;52.678;4.900;2023-09-30T07:45:11;2.63;;;1.57;;
74196;SDS011;62555;52.678;4.900;2023-09-30T07:47:41;3.58;;;1.50;;
74196;SDS011;62555;52.678;4.900;2023-09-30T07:50:06;2.03;;;1.40;;
74196;SDS011;62555;52.678;4.900;2023-09-30T07:52:34;3.72;;;1.65;;
74196;SDS011;62555;52.678;4.900;2023-09-30T07:54:59;2.97;;;1.93;;
74196;SDS011;62555;52.678;4.900;2023-09-30T07:57:25;3.93;;;1.70;;
74196;SDS011;62555;52.678;4.900;2023-09-30T07:59:50;2.60;;;1.60;;
74196;SDS011;62555;52.678;4.900;2023-09-30T08:02:16;2.57;;;1.67;;
74196;SDS011;62555;52.678;4.900;2023-09-30T08:04:42;2.15;;;1.40;;
74196;SDS011;62555;52.678;4.900;2023-09-30T08:07:08;2.72;;;1.88;;
74196;SDS011;62555;52.678;4.900;2023-09-30T08:09:34;2.90;;;1.75;;
74196;SDS011;62555;52.678;4.900;2023-09-30T08:11:59;2.97;;;1.87;;
74196;SDS011;62555;52.678;4.900;2023-09-30T08:14:24;2.23;;;1.70;;
74196;SDS011;62555;52.678;4.900;2023-09-30T08:16:50;2.90;;;1.90;;
74196;SDS011;62555;52.678;4.900;2023-09-30T08:19:15;2.73;;;1.80;;
74196;SDS011;62555;52.678;4.900;2023-09-30T08:21:41;2.83;;;1.80;;
74196;SDS011;62555;52.678;4.900;2023-09-30T08:24:06;3.00;;;1.75;;
74196;SDS011;62555;52.678;4.900;2023-09-30T08:26:31;2.60;;;1.80;;
74196;SDS011;62555;52.678;4.900;2023-09-30T08:28:57;2.88;;;1.85;;
74196;SDS011;62555;52.678;4.900;2023-09-30T08:31:23;3.07;;;1.83;;
74196;SDS011;62555;52.678;4.900;2023-09-30T08:33:49;2.50;;;1.40;;
74196;SDS011;62555;52.678;4.900;2023-09-30T08:36:14;2.03;;;1.50;;
74196;SDS011;62555;52.678;4.900;2023-09-30T08:38:40;2.07;;;1.60;;
74196;SDS011;62555;52.678;4.900;2023-09-30T08:41:05;2.50;;;1.60;;
74196;SDS011;62555;52.678;4.900;2023-09-30T08:43:32;2.25;;;2.03;;
74196;SDS011;62555;52.678;4.900;2023-09-30T08:46:01;2.92;;;1.80;;
74196;SDS011;62555;52.678;4.900;2023-09-30T08:48:27;3.28;;;1.40;;
74196;SDS011;62555;52.678;4.900;2023-09-30T08:50:53;2.40;;;1.70;;
74196;SDS011;62555;52.678;4.900;2023-09-30T08:53:22;2.22;;;1.45;;
74196;SDS011;62555;52.678;4.900;2023-09-30T08:55:47;2.28;;;1.92;;
74196;SDS011;62555;52.678;4.900;2023-09-30T08:58:15;2.63;;;1.90;;
74196;SDS011;62555;52.678;4.900;2023-09-30T09:00:40;2.92;;;1.63;;
74196;SDS011;62555;52.678;4.900;2023-09-30T09:03:06;2.30;;;1.50;;
74196;SDS011;62555;52.678;4.900;2023-09-30T09:05:32;2.05;;;1.58;;
74196;SDS011;62555;52.678;4.900;2023-09-30T09:07:57;2.28;;;1.95;;
74196;SDS011;62555;52.678;4.900;2023-09-30T09:10:22;2.50;;;1.70;;
74196;SDS011;62555;52.678;4.900;2023-09-30T09:12:54;2.50;;;1.60;;
74196;SDS011;62555;52.678;4.900;2023-09-30T09:15:20;2.08;;;1.80;;
74196;SDS011;62555;52.678;4.900;2023-09-30T09:17:46;1.80;;;1.40;;
74196;SDS011;62555;52.678;4.900;2023-09-30T09:20:16;2.10;;;1.40;;
74196;SDS011;62555;52.678;4.900;2023-09-30T09:22:45;2.03;;;1.40;;
74196;SDS011;62555;52.678;4.900;2023-09-30T09:25:10;2.28;;;1.60;;
74196;SDS011;62555;52.678;4.900;2023-09-30T09:27:36;3.07;;;1.60;;
74196;SDS011;62555;52.678;4.900;2023-09-30T09:30:14;1.77;;;1.27;;
74196;SDS011;62555;52.678;4.900;2023-09-30T09:32:39;3.05;;;1.63;;
74196;SDS011;62555;52.678;4.900;2023-09-30T09:35:15;1.77;;;1.30;;
74196;SDS011;62555;52.678;4.900;2023-09-30T09:37:44;2.33;;;2.03;;
74196;SDS011;62555;52.678;4.900;2023-09-30T09:40:19;2.47;;;1.77;;
74196;SDS011;62555;52.678;4.900;2023-09-30T09:42:47;2.03;;;1.58;;
74196;SDS011;62555;52.678;4.900;2023-09-30T09:45:14;2.17;;;1.15;;
74196;SDS011;62555;52.678;4.900;2023-09-30T09:47:39;1.90;;;1.60;;
74196;SDS011;62555;52.678;4.900;2023-09-30T09:50:05;1.73;;;1.47;;
74196;SDS011;62555;52.678;4.900;2023-09-30T09:52:30;3.20;;;1.63;;
74196;SDS011;62555;52.678;4.900;2023-09-30T09:54:56;3.03;;;1.95;;
74196;SDS011;62555;52.678;4.900;2023-09-30T09:57:22;2.67;;;1.80;;
74196;SDS011;62555;52.678;4.900;2023-09-30T09:59:50;2.90;;;1.48;;
74196;SDS011;62555;52.678;4.900;2023-09-30T10:02:16;1.98;;;1.40;;
74196;SDS011;62555;52.678;4.900;2023-09-30T10:04:43;1.65;;;1.30;;
74196;SDS011;62555;52.678;4.900;2023-09-30T10:07:10;2.28;;;1.80;;
74196;SDS011;62555;52.678;4.900;2023-09-30T10:09:39;2.78;;;1.77;;
74196;SDS011;62555;52.678;4.900;2023-09-30T10:14:33;2.05;;;1.50;;
74196;SDS011;62555;52.678;4.900;2023-09-30T10:17:00;1.88;;;1.35;;
74196;SDS011;62555;52.678;4.900;2023-09-30T10:19:26;2.92;;;1.75;;
74196;SDS011;62555;52.678;4.900;2023-09-30T10:24:36;3.47;;;1.20;;
74196;SDS011;62555;52.678;4.900;2023-09-30T10:29:46;3.63;;;1.65;;
74196;SDS011;62555;52.678;4.900;2023-09-30T10:32:11;2.53;;;1.60;;
74196;SDS011;62555;52.678;4.900;2023-09-30T10:34:36;1.90;;;1.30;;
74196;SDS011;62555;52.678;4.900;2023-09-30T10:37:20;2.13;;;1.40;;
74196;SDS011;62555;52.678;4.900;2023-09-30T10:39:58;2.42;;;1.38;;
74196;SDS011;62555;52.678;4.900;2023-09-30T10:42:43;2.47;;;1.70;;
74196;SDS011;62555;52.678;4.900;2023-09-30T10:47:36;2.67;;;1.50;;
74196;SDS011;62555;52.678;4.900;2023-09-30T10:50:01;1.92;;;1.20;;
74196;SDS011;62555;52.678;4.900;2023-09-30T10:52:26;2.20;;;1.40;;
74196;SDS011;62555;52.678;4.900;2023-09-30T10:54:51;2.30;;;1.23;;
74196;SDS011;62555;52.678;4.900;2023-09-30T10:57:26;1.80;;;1.30;;
74196;SDS011;62555;52.678;4.900;2023-09-30T11:00:10;1.55;;;1.05;;
74196;SDS011;62555;52.678;4.900;2023-09-30T11:02:47;1.95;;;1.05;;
74196;SDS011;62555;52.678;4.900;2023-09-30T11:05:12;2.13;;;1.30;;
74196;SDS011;62555;52.678;4.900;2023-09-30T11:07:38;1.35;;;1.05;;
74196;SDS011;62555;52.678;4.900;2023-09-30T11:10:04;1.73;;;1.00;;
74196;SDS011;62555;52.678;4.900;2023-09-30T11:12:29;2.30;;;1.50;;
74196;SDS011;62555;52.678;4.900;2023-09-30T11:15:01;2.40;;;1.13;;
74196;SDS011;62555;52.678;4.900;2023-09-30T11:17:27;1.85;;;1.10;;
74196;SDS011;62555;52.678;4.900;2023-09-30T11:19:52;1.60;;;1.03;;
74196;SDS011;62555;52.678;4.900;2023-09-30T11:22:17;1.30;;;1.00;;
74196;SDS011;62555;52.678;4.900;2023-09-30T11:24:42;3.33;;;1.40;;
74196;SDS011;62555;52.678;4.900;2023-09-30T11:27:08;3.07;;;1.17;;
74196;SDS011;62555;52.678;4.900;2023-09-30T11:29:34;1.55;;;1.30;;
74196;SDS011;62555;52.678;4.900;2023-09-30T11:31:59;2.93;;;1.20;;
74196;SDS011;62555;52.678;4.900;2023-09-30T11:34:35;2.83;;;1.23;;
74196;SDS011;62555;52.678;4.900;2023-09-30T11:37:01;1.98;;;1.08;;
74196;SDS011;62555;52.678;4.900;2023-09-30T11:39:27;2.25;;;1.13;;
74196;SDS011;62555;52.678;4.900;2023-09-30T11:41:52;2.55;;;1.35;;
74196;SDS011;62555;52.678;4.900;2023-09-30T11:44:18;1.90;;;1.27;;
74196;SDS011;62555;52.678;4.900;2023-09-30T11:46:47;1.63;;;1.27;;
74196;SDS011;62555;52.678;4.900;2023-09-30T11:49:13;3.03;;;1.20;;
74196;SDS011;62555;52.678;4.900;2023-09-30T11:51:48;1.85;;;0.90;;
74196;SDS011;62555;52.678;4.900;2023-09-30T11:54:14;2.13;;;1.33;;
74196;SDS011;62555;52.678;4.900;2023-09-30T11:56:39;1.75;;;1.30;;
74196;SDS011;62555;52.678;4.900;2023-09-30T11:59:04;1.40;;;1.00;;
74196;SDS011;62555;52.678;4.900;2023-09-30T12:01:30;1.38;;;1.00;;
74196;SDS011;62555;52.678;4.900;2023-09-30T12:03:57;1.35;;;1.08;;
74196;SDS011;62555;52.678;4.900;2023-09-30T12:06:22;2.30;;;1.20;;
74196;SDS011;62555;52.678;4.900;2023-09-30T12:08:47;1.80;;;1.00;;
74196;SDS011;62555;52.678;4.900;2023-09-30T12:11:13;1.70;;;0.82;;
74196;SDS011;62555;52.678;4.900;2023-09-30T12:13:40;1.55;;;0.90;;
74196;SDS011;62555;52.678;4.900;2023-09-30T12:16:05;1.08;;;0.90;;
74196;SDS011;62555;52.678;4.900;2023-09-30T12:18:31;1.27;;;1.10;;
74196;SDS011;62555;52.678;4.900;2023-09-30T12:20:56;1.60;;;1.00;;
74196;SDS011;62555;52.678;4.900;2023-09-30T12:23:21;1.50;;;1.27;;
74196;SDS011;62555;52.678;4.900;2023-09-30T12:25:47;1.77;;;1.13;;
74196;SDS011;62555;52.678;4.900;2023-09-30T12:28:12;1.90;;;1.10;;
74196;SDS011;62555;52.678;4.900;2023-09-30T12:30:38;1.48;;;0.93;;
74196;SDS011;62555;52.678;4.900;2023-09-30T12:33:05;1.33;;;0.82;;
74196;SDS011;62555;52.678;4.900;2023-09-30T12:35:31;1.15;;;1.05;;
74196;SDS011;62555;52.678;4.900;2023-09-30T12:37:57;1.65;;;0.98;;
74196;SDS011;62555;52.678;4.900;2023-09-30T12:40:22;2.55;;;1.35;;
74196;SDS011;62555;52.678;4.900;2023-09-30T12:42:48;1.73;;;0.98;;
74196;SDS011;62555;52.678;4.900;2023-09-30T12:45:13;2.47;;;1.40;;
74196;SDS011;62555;52.678;4.900;2023-09-30T12:47:38;2.83;;;0.90;;
74196;SDS011;62555;52.678;4.900;2023-09-30T12:50:03;1.77;;;1.10;;
74196;SDS011;62555;52.678;4.900;2023-09-30T12:52:29;2.47;;;1.02;;
74196;SDS011;62555;52.678;4.900;2023-09-30T12:54:55;2.17;;;1.13;;
74196;SDS011;62555;52.678;4.900;2023-09-30T12:57:20;1.57;;;0.97;;
74196;SDS011;62555;52.678;4.900;2023-09-30T12:59:45;2.80;;;1.23;;
74196;SDS011;62555;52.678;4.900;2023-09-30T13:02:18;0.85;;;0.68;;
74196;SDS011;62555;52.678;4.900;2023-09-30T13:04:44;1.30;;;0.90;;
74196;SDS011;62555;52.678;4.900;2023-09-30T13:07:09;2.40;;;0.75;;
74196;SDS011;62555;52.678;4.900;2023-09-30T13:09:35;1.83;;;1.20;;
74196;SDS011;62555;52.678;4.900;2023-09-30T13:12:01;1.50;;;0.90;;
74196;SDS011;62555;52.678;4.900;2023-09-30T13:14:26;2.53;;;1.30;;
74196;SDS011;62555;52.678;4.900;2023-09-30T13:16:53;1.52;;;0.82;;
74196;SDS011;62555;52.678;4.900;2023-09-30T13:19:18;1.55;;;1.20;;
74196;SDS011;62555;52.678;4.900;2023-09-30T13:21:46;2.75;;;1.00;;
74196;SDS011;62555;52.678;4.900;2023-09-30T13:24:11;1.52;;;0.93;;
74196;SDS011;62555;52.678;4.900;2023-09-30T13:26:37;2.13;;;0.98;;
74196;SDS011;62555;52.678;4.900;2023-09-30T13:29:02;2.43;;;1.00;;
74196;SDS011;62555;52.678;4.900;2023-09-30T13:31:30;2.55;;;1.10;;
74196;SDS011;62555;52.678;4.900;2023-09-30T13:33:55;1.30;;;1.00;;
74196;SDS011;62555;52.678;4.900;2023-09-30T13:36:20;2.03;;;0.90;;
74196;SDS011;62555;52.678;4.900;2023-09-30T13:38:45;1.80;;;0.82;;
74196;SDS011;62555;52.678;4.900;2023-09-30T13:41:11;1.35;;;0.85;;
74196;SDS011;62555;52.678;4.900;2023-09-30T13:43:36;1.30;;;0.70;;
74196;SDS011;62555;52.678;4.900;2023-09-30T13:46:04;2.63;;;0.80;;
74196;SDS011;62555;52.678;4.900;2023-09-30T13:48:31;1.42;;;1.00;;
74196;SDS011;62555;52.678;4.900;2023-09-30T13:51:03;1.47;;;0.93;;
74196;SDS011;62555;52.678;4.900;2023-09-30T13:53:28;1.13;;;0.90;;
74196;SDS011;62555;52.678;4.900;2023-09-30T13:55:53;2.65;;;1.10;;
74196;SDS011;62555;52.678;4.900;2023-09-30T13:58:18;1.87;;;1.10;;
74196;SDS011;62555;52.678;4.900;2023-09-30T14:00:46;3.63;;;1.10;;
74196;SDS011;62555;52.678;4.900;2023-09-30T14:03:11;1.23;;;1.13;;
74196;SDS011;62555;52.678;4.900;2023-09-30T14:05:37;3.30;;;0.90;;
74196;SDS011;62555;52.678;4.900;2023-09-30T14:08:03;1.45;;;0.65;;
74196;SDS011;62555;52.678;4.900;2023-09-30T14:10:29;1.75;;;0.80;;
74196;SDS011;62555;52.678;4.900;2023-09-30T14:12:54;2.15;;;0.90;;
74196;SDS011;62555;52.678;4.900;2023-09-30T14:15:19;3.23;;;1.00;;
74196;SDS011;62555;52.678;4.900;2023-09-30T14:17:45;4.07;;;1.20;;
74196;SDS011;62555;52.678;4.900;2023-09-30T14:20:10;1.10;;;0.73;;
74196;SDS011;62555;52.678;4.900;2023-09-30T14:22:37;2.25;;;0.98;;
74196;SDS011;62555;52.678;4.900;2023-09-30T14:25:02;1.43;;;1.20;;
74196;SDS011;62555;52.678;4.900;2023-09-30T14:27:27;1.50;;;1.02;;
74196;SDS011;62555;52.678;4.900;2023-09-30T14:29:53;2.78;;;0.90;;
74196;SDS011;62555;52.678;4.900;2023-09-30T14:32:18;3.13;;;1.05;;
74196;SDS011;62555;52.678;4.900;2023-09-30T14:34:43;1.93;;;1.00;;
74196;SDS011;62555;52.678;4.900;2023-09-30T14:37:08;2.97;;;1.00;;
74196;SDS011;62555;52.678;4.900;2023-09-30T14:39:33;3.00;;;1.13;;
74196;SDS011;62555;52.678;4.900;2023-09-30T14:41:59;2.78;;;1.05;;
74196;SDS011;62555;52.678;4.900;2023-09-30T14:44:24;1.40;;;0.90;;
74196;SDS011;62555;52.678;4.900;2023-09-30T14:46:50;1.55;;;1.10;;
74196;SDS011;62555;52.678;4.900;2023-09-30T14:49:15;3.33;;;1.10;;
74196;SDS011;62555;52.678;4.900;2023-09-30T14:51:40;2.23;;;1.10;;
74196;SDS011;62555;52.678;4.900;2023-09-30T14:54:06;1.52;;;0.63;;